sensor_id;sensor_type;location;lat;lon;timestamp;P1;durP1;ratioP1;P2;durP2;ratioP2
80567;SDS011;69922;45.656;25.586;2024-03-02T00:00:54;3.90;;;1.40;;
80567;SDS011;69922;45.656;25.586;2024-03-02T00:02:21;4.60;;;1.60;;
80567;SDS011;69922;45.656;25.586;2024-03-02T00:03:31;5.40;;;1.60;;
80567;SDS011;69922;45.656;25.586;2024-03-02T00:04:39;1.80;;;1.30;;
80567;SDS011;69922;45.656;25.586;2024-03-02T00:05:52;4.60;;;1.70;;
80567;SDS011;69922;45.656;25.586;2024-03-02T00:06:59;4.70;;;1.80;;
80567;SDS011;69922;45.656;25.586;2024-03-02T00:08:07;3.10;;;1.90;;
80567;SDS011;69922;45.656;25.586;2024-03-02T00:09:14;4.60;;;1.60;;
80567;SDS011;69922;45.656;25.586;2024-03-02T00:10:21;2.90;;;1.70;;
80567;SDS011;69922;45.656;25.586;2024-03-02T00:11:36;3.40;;;1.60;;
80567;SDS011;69922;45.656;25.586;2024-03-02T00:12:45;4.70;;;1.60;;
80567;SDS011;69922;45.656;25.586;2024-03-02T00:13:54;2.90;;;1.50;;
80567;SDS011;69922;45.656;25.586;2024-03-02T00:15:01;3.20;;;1.60;;
80567;SDS011;69922;45.656;25.586;2024-03-02T00:16:09;3.70;;;1.70;;
80567;SDS011;69922;45.656;25.586;2024-03-02T00:18:26;5.40;;;2.00;;
80567;SDS011;69922;45.656;25.586;2024-03-02T00:19:39;3.30;;;2.10;;
80567;SDS011;69922;45.656;25.586;2024-03-02T00:20:47;4.10;;;1.90;;
80567;SDS011;69922;45.656;25.586;2024-03-02T00:21:57;2.90;;;1.40;;
80567;SDS011;69922;45.656;25.586;2024-03-02T00:23:08;3.70;;;1.70;;
80567;SDS011;69922;45.656;25.586;2024-03-02T00:24:19;3.20;;;1.90;;
80567;SDS011;69922;45.656;25.586;2024-03-02T00:25:43;4.90;;;1.90;;
80567;SDS011;69922;45.656;25.586;2024-03-02T00:26:53;2.80;;;1.60;;
80567;SDS011;69922;45.656;25.586;2024-03-02T00:28:00;4.00;;;1.80;;
80567;SDS011;69922;45.656;25.586;2024-03-02T00:29:06;3.30;;;1.60;;
80567;SDS011;69922;45.656;25.586;2024-03-02T00:30:27;4.80;;;2.00;;
80567;SDS011;69922;45.656;25.586;2024-03-02T00:31:55;3.80;;;1.90;;
80567;SDS011;69922;45.656;25.586;2024-03-02T00:33:04;3.90;;;1.80;;
80567;SDS011;69922;45.656;25.586;2024-03-02T00:34:13;2.80;;;1.70;;
80567;SDS011;69922;45.656;25.586;2024-03-02T00:35:22;3.70;;;1.80;;
80567;SDS011;69922;45.656;25.586;2024-03-02T00:36:30;4.50;;;1.70;;
80567;SDS011;69922;45.656;25.586;2024-03-02T00:37:39;4.90;;;1.90;;
80567;SDS011;69922;45.656;25.586;2024-03-02T00:38:46;5.50;;;1.60;;
80567;SDS011;69922;45.656;25.586;2024-03-02T00:39:56;3.20;;;1.70;;
80567;SDS011;69922;45.656;25.586;2024-03-02T00:41:05;4.70;;;1.90;;
80567;SDS011;69922;45.656;25.586;2024-03-02T00:42:13;5.30;;;2.60;;
80567;SDS011;69922;45.656;25.586;2024-03-02T00:44:52;3.90;;;2.00;;
80567;SDS011;69922;45.656;25.586;2024-03-02T00:45:59;4.20;;;1.80;;
80567;SDS011;69922;45.656;25.586;2024-03-02T00:47:07;3.10;;;1.60;;
80567;SDS011;69922;45.656;25.586;2024-03-02T00:48:14;4.20;;;2.10;;
80567;SDS011;69922;45.656;25.586;2024-03-02T00:49:22;4.50;;;1.60;;
80567;SDS011;69922;45.656;25.586;2024-03-02T00:51:37;4.30;;;1.60;;
80567;SDS011;69922;45.656;25.586;2024-03-02T00:52:46;1.90;;;1.20;;
80567;SDS011;69922;45.656;25.586;2024-03-02T00:53:53;2.30;;;1.30;;
80567;SDS011;69922;45.656;25.586;2024-03-02T00:55:06;2.20;;;1.50;;
80567;SDS011;69922;45.656;25.586;2024-03-02T00:56:13;3.50;;;1.50;;
80567;SDS011;69922;45.656;25.586;2024-03-02T00:57:20;4.90;;;1.60;;
80567;SDS011;69922;45.656;25.586;2024-03-02T00:58:30;3.20;;;1.60;;
80567;SDS011;69922;45.656;25.586;2024-03-02T00:59:38;2.40;;;1.70;;
80567;SDS011;69922;45.656;25.586;2024-03-02T01:00:46;3.40;;;1.60;;
80567;SDS011;69922;45.656;25.586;2024-03-02T01:01:54;3.10;;;1.50;;
80567;SDS011;69922;45.656;25.586;2024-03-02T01:03:01;3.70;;;1.80;;
80567;SDS011;69922;45.656;25.586;2024-03-02T01:04:08;6.80;;;1.70;;
80567;SDS011;69922;45.656;25.586;2024-03-02T01:05:17;3.30;;;1.40;;
80567;SDS011;69922;45.656;25.586;2024-03-02T01:06:24;4.20;;;1.60;;
80567;SDS011;69922;45.656;25.586;2024-03-02T01:07:31;3.90;;;1.60;;
80567;SDS011;69922;45.656;25.586;2024-03-02T01:08:37;4.00;;;1.40;;
80567;SDS011;69922;45.656;25.586;2024-03-02T01:09:44;2.20;;;1.50;;
80567;SDS011;69922;45.656;25.586;2024-03-02T01:10:51;4.30;;;1.60;;
80567;SDS011;69922;45.656;25.586;2024-03-02T01:11:59;3.30;;;1.50;;
80567;SDS011;69922;45.656;25.586;2024-03-02T01:13:06;2.90;;;1.70;;
80567;SDS011;69922;45.656;25.586;2024-03-02T01:14:13;3.10;;;1.70;;
80567;SDS011;69922;45.656;25.586;2024-03-02T01:15:21;3.20;;;1.90;;
80567;SDS011;69922;45.656;25.586;2024-03-02T01:16:28;3.00;;;1.50;;
80567;SDS011;69922;45.656;25.586;2024-03-02T01:17:35;4.60;;;2.00;;
80567;SDS011;69922;45.656;25.586;2024-03-02T01:18:42;2.30;;;1.60;;
80567;SDS011;69922;45.656;25.586;2024-03-02T01:19:49;4.80;;;1.50;;
80567;SDS011;69922;45.656;25.586;2024-03-02T01:20:56;4.80;;;1.70;;
80567;SDS011;69922;45.656;25.586;2024-03-02T01:22:03;3.50;;;1.50;;
80567;SDS011;69922;45.656;25.586;2024-03-02T01:23:10;3.80;;;1.50;;
80567;SDS011;69922;45.656;25.586;2024-03-02T01:24:17;5.20;;;2.00;;
80567;SDS011;69922;45.656;25.586;2024-03-02T01:25:24;2.90;;;1.70;;
80567;SDS011;69922;45.656;25.586;2024-03-02T01:26:31;5.30;;;1.60;;
80567;SDS011;69922;45.656;25.586;2024-03-02T01:27:37;3.70;;;2.50;;
80567;SDS011;69922;45.656;25.586;2024-03-02T01:28:44;4.50;;;1.60;;
80567;SDS011;69922;45.656;25.586;2024-03-02T01:29:51;2.70;;;1.90;;
80567;SDS011;69922;45.656;25.586;2024-03-02T01:30:59;3.20;;;1.80;;
80567;SDS011;69922;45.656;25.586;2024-03-02T01:32:08;3.60;;;1.60;;
80567;SDS011;69922;45.656;25.586;2024-03-02T01:33:14;2.70;;;1.50;;
80567;SDS011;69922;45.656;25.586;2024-03-02T01:34:21;2.10;;;1.60;;
80567;SDS011;69922;45.656;25.586;2024-03-02T01:35:29;4.00;;;1.40;;
80567;SDS011;69922;45.656;25.586;2024-03-02T01:36:36;3.90;;;1.50;;
80567;SDS011;69922;45.656;25.586;2024-03-02T01:37:42;3.00;;;1.50;;
80567;SDS011;69922;45.656;25.586;2024-03-02T01:38:49;3.30;;;1.90;;
80567;SDS011;69922;45.656;25.586;2024-03-02T01:39:56;3.90;;;1.70;;
80567;SDS011;69922;45.656;25.586;2024-03-02T01:41:03;2.20;;;1.50;;
80567;SDS011;69922;45.656;25.586;2024-03-02T01:42:09;4.40;;;1.60;;
80567;SDS011;69922;45.656;25.586;2024-03-02T01:43:16;3.60;;;1.70;;
80567;SDS011;69922;45.656;25.586;2024-03-02T01:44:23;2.70;;;1.60;;
80567;SDS011;69922;45.656;25.586;2024-03-02T01:45:30;2.00;;;1.40;;
80567;SDS011;69922;45.656;25.586;2024-03-02T01:46:37;2.20;;;1.50;;
80567;SDS011;69922;45.656;25.586;2024-03-02T01:47:45;2.60;;;1.70;;
80567;SDS011;69922;45.656;25.586;2024-03-02T01:48:53;3.70;;;1.70;;
80567;SDS011;69922;45.656;25.586;2024-03-02T01:49:59;3.30;;;1.80;;
80567;SDS011;69922;45.656;25.586;2024-03-02T01:51:07;4.60;;;1.70;;
80567;SDS011;69922;45.656;25.586;2024-03-02T01:52:15;3.40;;;2.10;;
80567;SDS011;69922;45.656;25.586;2024-03-02T01:53:22;2.70;;;1.50;;
80567;SDS011;69922;45.656;25.586;2024-03-02T01:54:28;3.50;;;1.70;;
80567;SDS011;69922;45.656;25.586;2024-03-02T01:55:36;4.10;;;1.80;;
80567;SDS011;69922;45.656;25.586;2024-03-02T01:56:42;3.90;;;1.70;;
80567;SDS011;69922;45.656;25.586;2024-03-02T01:57:50;2.60;;;1.80;;
80567;SDS011;69922;45.656;25.586;2024-03-02T01:58:59;3.30;;;1.60;;
80567;SDS011;69922;45.656;25.586;2024-03-02T02:00:08;4.50;;;1.70;;
80567;SDS011;69922;45.656;25.586;2024-03-02T02:01:16;4.30;;;1.80;;
80567;SDS011;69922;45.656;25.586;2024-03-02T02:02:23;4.70;;;1.60;;
80567;SDS011;69922;45.656;25.586;2024-03-02T02:03:30;2.00;;;1.30;;
80567;SDS011;69922;45.656;25.586;2024-03-02T02:04:37;5.50;;;1.70;;
80567;SDS011;69922;45.656;25.586;2024-03-02T02:05:44;3.30;;;1.60;;
80567;SDS011;69922;45.656;25.586;2024-03-02T02:06:52;4.60;;;1.80;;
80567;SDS011;69922;45.656;25.586;2024-03-02T02:08:00;2.40;;;1.60;;
80567;SDS011;69922;45.656;25.586;2024-03-02T02:09:08;4.70;;;1.60;;
80567;SDS011;69922;45.656;25.586;2024-03-02T02:10:15;3.90;;;2.00;;
80567;SDS011;69922;45.656;25.586;2024-03-02T02:11:23;4.00;;;2.00;;
80567;SDS011;69922;45.656;25.586;2024-03-02T02:12:32;3.70;;;1.80;;
80567;SDS011;69922;45.656;25.586;2024-03-02T02:13:39;2.40;;;1.80;;
80567;SDS011;69922;45.656;25.586;2024-03-02T02:14:48;3.70;;;1.70;;
80567;SDS011;69922;45.656;25.586;2024-03-02T02:17:03;5.90;;;1.90;;
80567;SDS011;69922;45.656;25.586;2024-03-02T02:18:10;6.30;;;2.20;;
80567;SDS011;69922;45.656;25.586;2024-03-02T02:19:17;5.00;;;2.60;;
80567;SDS011;69922;45.656;25.586;2024-03-02T02:20:24;3.40;;;2.10;;
80567;SDS011;69922;45.656;25.586;2024-03-02T02:21:31;4.70;;;2.40;;
80567;SDS011;69922;45.656;25.586;2024-03-02T02:22:38;3.80;;;2.60;;
80567;SDS011;69922;45.656;25.586;2024-03-02T02:23:45;4.20;;;2.40;;
80567;SDS011;69922;45.656;25.586;2024-03-02T02:24:53;3.90;;;2.40;;
80567;SDS011;69922;45.656;25.586;2024-03-02T02:26:00;5.60;;;2.30;;
80567;SDS011;69922;45.656;25.586;2024-03-02T02:27:08;5.00;;;2.70;;
80567;SDS011;69922;45.656;25.586;2024-03-02T02:28:19;4.00;;;2.30;;
80567;SDS011;69922;45.656;25.586;2024-03-02T02:29:25;6.90;;;2.20;;
80567;SDS011;69922;45.656;25.586;2024-03-02T02:30:31;5.30;;;3.20;;
80567;SDS011;69922;45.656;25.586;2024-03-02T02:31:40;4.50;;;2.70;;
80567;SDS011;69922;45.656;25.586;2024-03-02T02:32:47;3.20;;;2.40;;
80567;SDS011;69922;45.656;25.586;2024-03-02T02:33:53;3.60;;;2.30;;
80567;SDS011;69922;45.656;25.586;2024-03-02T02:35:00;7.70;;;2.70;;
80567;SDS011;69922;45.656;25.586;2024-03-02T02:36:08;4.80;;;2.60;;
80567;SDS011;69922;45.656;25.586;2024-03-02T02:37:15;5.70;;;3.00;;
80567;SDS011;69922;45.656;25.586;2024-03-02T02:38:22;5.00;;;2.80;;
80567;SDS011;69922;45.656;25.586;2024-03-02T02:39:30;5.30;;;2.80;;
80567;SDS011;69922;45.656;25.586;2024-03-02T02:40:37;4.00;;;2.60;;
80567;SDS011;69922;45.656;25.586;2024-03-02T02:41:44;4.80;;;2.80;;
80567;SDS011;69922;45.656;25.586;2024-03-02T02:42:50;4.20;;;2.70;;
80567;SDS011;69922;45.656;25.586;2024-03-02T02:43:57;6.60;;;3.20;;
80567;SDS011;69922;45.656;25.586;2024-03-02T02:45:04;9.00;;;3.20;;
80567;SDS011;69922;45.656;25.586;2024-03-02T02:47:18;5.50;;;2.90;;
80567;SDS011;69922;45.656;25.586;2024-03-02T02:48:25;4.90;;;2.90;;
80567;SDS011;69922;45.656;25.586;2024-03-02T02:49:32;4.20;;;2.40;;
80567;SDS011;69922;45.656;25.586;2024-03-02T02:50:39;4.00;;;2.20;;
80567;SDS011;69922;45.656;25.586;2024-03-02T02:51:46;6.90;;;2.80;;
80567;SDS011;69922;45.656;25.586;2024-03-02T02:52:53;4.70;;;2.60;;
80567;SDS011;69922;45.656;25.586;2024-03-02T02:54:00;7.20;;;3.10;;
80567;SDS011;69922;45.656;25.586;2024-03-02T02:55:09;7.40;;;2.60;;
80567;SDS011;69922;45.656;25.586;2024-03-02T02:56:16;4.30;;;2.80;;
80567;SDS011;69922;45.656;25.586;2024-03-02T02:57:24;6.70;;;2.90;;
80567;SDS011;69922;45.656;25.586;2024-03-02T02:58:32;6.50;;;2.80;;
80567;SDS011;69922;45.656;25.586;2024-03-02T02:59:38;4.10;;;2.80;;
80567;SDS011;69922;45.656;25.586;2024-03-02T03:00:45;5.50;;;3.00;;
80567;SDS011;69922;45.656;25.586;2024-03-02T03:01:52;5.20;;;2.80;;
80567;SDS011;69922;45.656;25.586;2024-03-02T03:02:59;5.20;;;2.60;;
80567;SDS011;69922;45.656;25.586;2024-03-02T03:04:06;6.30;;;3.00;;
80567;SDS011;69922;45.656;25.586;2024-03-02T03:05:13;6.20;;;3.10;;
80567;SDS011;69922;45.656;25.586;2024-03-02T03:06:21;4.00;;;2.60;;
80567;SDS011;69922;45.656;25.586;2024-03-02T03:07:28;8.20;;;3.10;;
80567;SDS011;69922;45.656;25.586;2024-03-02T03:08:35;5.90;;;2.80;;
80567;SDS011;69922;45.656;25.586;2024-03-02T03:09:41;5.00;;;2.80;;
80567;SDS011;69922;45.656;25.586;2024-03-02T03:10:48;8.60;;;3.00;;
80567;SDS011;69922;45.656;25.586;2024-03-02T03:11:56;4.20;;;2.80;;
80567;SDS011;69922;45.656;25.586;2024-03-02T03:13:02;5.70;;;3.00;;
80567;SDS011;69922;45.656;25.586;2024-03-02T03:14:12;5.00;;;2.90;;
80567;SDS011;69922;45.656;25.586;2024-03-02T03:15:19;6.20;;;2.70;;
80567;SDS011;69922;45.656;25.586;2024-03-02T03:16:27;5.60;;;3.10;;
80567;SDS011;69922;45.656;25.586;2024-03-02T03:17:34;4.60;;;2.40;;
80567;SDS011;69922;45.656;25.586;2024-03-02T03:18:42;4.70;;;2.80;;
80567;SDS011;69922;45.656;25.586;2024-03-02T03:19:49;8.20;;;2.60;;
80567;SDS011;69922;45.656;25.586;2024-03-02T03:20:56;4.80;;;2.90;;
80567;SDS011;69922;45.656;25.586;2024-03-02T03:22:04;5.60;;;2.90;;
80567;SDS011;69922;45.656;25.586;2024-03-02T03:23:11;4.90;;;2.70;;
80567;SDS011;69922;45.656;25.586;2024-03-02T03:24:20;5.60;;;2.80;;
80567;SDS011;69922;45.656;25.586;2024-03-02T03:25:26;3.90;;;3.00;;
80567;SDS011;69922;45.656;25.586;2024-03-02T03:26:33;6.00;;;3.00;;
80567;SDS011;69922;45.656;25.586;2024-03-02T03:28:47;4.30;;;2.30;;
80567;SDS011;69922;45.656;25.586;2024-03-02T03:29:53;6.40;;;2.90;;
80567;SDS011;69922;45.656;25.586;2024-03-02T03:31:00;7.40;;;3.00;;
80567;SDS011;69922;45.656;25.586;2024-03-02T03:32:08;4.20;;;2.50;;
80567;SDS011;69922;45.656;25.586;2024-03-02T03:33:15;3.60;;;2.60;;
80567;SDS011;69922;45.656;25.586;2024-03-02T03:34:22;4.70;;;3.00;;
80567;SDS011;69922;45.656;25.586;2024-03-02T03:35:29;5.80;;;2.90;;
80567;SDS011;69922;45.656;25.586;2024-03-02T03:36:36;7.00;;;2.80;;
80567;SDS011;69922;45.656;25.586;2024-03-02T03:37:44;4.70;;;3.00;;
80567;SDS011;69922;45.656;25.586;2024-03-02T03:38:51;7.10;;;3.10;;
80567;SDS011;69922;45.656;25.586;2024-03-02T03:39:59;10.10;;;3.20;;
80567;SDS011;69922;45.656;25.586;2024-03-02T03:41:07;7.10;;;3.50;;
80567;SDS011;69922;45.656;25.586;2024-03-02T03:42:14;5.60;;;2.70;;
80567;SDS011;69922;45.656;25.586;2024-03-02T03:43:21;7.40;;;2.80;;
80567;SDS011;69922;45.656;25.586;2024-03-02T03:44:29;5.20;;;2.80;;
80567;SDS011;69922;45.656;25.586;2024-03-02T03:45:35;5.80;;;2.90;;
80567;SDS011;69922;45.656;25.586;2024-03-02T03:46:42;7.30;;;3.40;;
80567;SDS011;69922;45.656;25.586;2024-03-02T03:47:48;5.50;;;2.70;;
80567;SDS011;69922;45.656;25.586;2024-03-02T03:48:55;5.50;;;2.80;;
80567;SDS011;69922;45.656;25.586;2024-03-02T03:50:02;5.00;;;2.60;;
80567;SDS011;69922;45.656;25.586;2024-03-02T03:51:12;5.60;;;3.20;;
80567;SDS011;69922;45.656;25.586;2024-03-02T03:52:19;4.40;;;2.60;;
80567;SDS011;69922;45.656;25.586;2024-03-02T03:53:27;6.30;;;2.50;;
80567;SDS011;69922;45.656;25.586;2024-03-02T03:54:34;3.80;;;2.50;;
80567;SDS011;69922;45.656;25.586;2024-03-02T03:55:43;4.50;;;2.50;;
80567;SDS011;69922;45.656;25.586;2024-03-02T03:56:51;6.40;;;2.50;;
80567;SDS011;69922;45.656;25.586;2024-03-02T03:57:58;5.90;;;2.60;;
80567;SDS011;69922;45.656;25.586;2024-03-02T03:59:05;4.80;;;2.40;;
80567;SDS011;69922;45.656;25.586;2024-03-02T04:00:13;5.20;;;2.40;;
80567;SDS011;69922;45.656;25.586;2024-03-02T04:01:22;5.60;;;2.60;;
80567;SDS011;69922;45.656;25.586;2024-03-02T04:02:30;5.80;;;2.70;;
80567;SDS011;69922;45.656;25.586;2024-03-02T04:03:38;5.00;;;2.60;;
80567;SDS011;69922;45.656;25.586;2024-03-02T04:04:45;6.10;;;2.40;;
80567;SDS011;69922;45.656;25.586;2024-03-02T04:05:52;4.70;;;3.00;;
80567;SDS011;69922;45.656;25.586;2024-03-02T04:06:59;7.30;;;2.40;;
80567;SDS011;69922;45.656;25.586;2024-03-02T04:08:06;4.20;;;2.90;;
80567;SDS011;69922;45.656;25.586;2024-03-02T04:09:13;5.30;;;2.90;;
80567;SDS011;69922;45.656;25.586;2024-03-02T04:10:20;7.20;;;2.70;;
80567;SDS011;69922;45.656;25.586;2024-03-02T04:11:27;5.60;;;2.70;;
80567;SDS011;69922;45.656;25.586;2024-03-02T04:12:35;7.50;;;2.90;;
80567;SDS011;69922;45.656;25.586;2024-03-02T04:13:44;5.40;;;2.80;;
80567;SDS011;69922;45.656;25.586;2024-03-02T04:14:51;6.40;;;2.80;;
80567;SDS011;69922;45.656;25.586;2024-03-02T04:15:57;6.50;;;3.00;;
80567;SDS011;69922;45.656;25.586;2024-03-02T04:17:05;7.90;;;3.30;;
80567;SDS011;69922;45.656;25.586;2024-03-02T04:18:12;8.40;;;3.80;;
80567;SDS011;69922;45.656;25.586;2024-03-02T04:19:19;10.30;;;3.40;;
80567;SDS011;69922;45.656;25.586;2024-03-02T04:20:26;10.70;;;4.20;;
80567;SDS011;69922;45.656;25.586;2024-03-02T04:21:34;11.50;;;4.10;;
80567;SDS011;69922;45.656;25.586;2024-03-02T04:22:42;11.70;;;4.50;;
80567;SDS011;69922;45.656;25.586;2024-03-02T04:23:49;10.60;;;4.30;;
80567;SDS011;69922;45.656;25.586;2024-03-02T04:24:56;8.50;;;3.90;;
80567;SDS011;69922;45.656;25.586;2024-03-02T04:26:04;9.90;;;3.90;;
80567;SDS011;69922;45.656;25.586;2024-03-02T04:27:10;9.40;;;3.40;;
80567;SDS011;69922;45.656;25.586;2024-03-02T04:28:17;5.40;;;3.00;;
80567;SDS011;69922;45.656;25.586;2024-03-02T04:29:23;5.70;;;2.90;;
80567;SDS011;69922;45.656;25.586;2024-03-02T04:30:30;5.10;;;2.80;;
80567;SDS011;69922;45.656;25.586;2024-03-02T04:31:38;5.90;;;2.60;;
80567;SDS011;69922;45.656;25.586;2024-03-02T04:32:45;4.20;;;2.60;;
80567;SDS011;69922;45.656;25.586;2024-03-02T04:33:53;6.30;;;2.40;;
80567;SDS011;69922;45.656;25.586;2024-03-02T04:35:00;6.20;;;3.10;;
80567;SDS011;69922;45.656;25.586;2024-03-02T04:36:08;6.70;;;2.80;;
80567;SDS011;69922;45.656;25.586;2024-03-02T04:37:15;4.80;;;2.70;;
80567;SDS011;69922;45.656;25.586;2024-03-02T04:38:22;7.30;;;3.00;;
80567;SDS011;69922;45.656;25.586;2024-03-02T04:39:29;6.00;;;2.60;;
80567;SDS011;69922;45.656;25.586;2024-03-02T04:40:38;4.90;;;2.90;;
80567;SDS011;69922;45.656;25.586;2024-03-02T04:41:46;6.40;;;3.00;;
80567;SDS011;69922;45.656;25.586;2024-03-02T04:42:52;8.00;;;2.60;;
80567;SDS011;69922;45.656;25.586;2024-03-02T04:43:59;4.40;;;2.10;;
80567;SDS011;69922;45.656;25.586;2024-03-02T04:45:09;5.90;;;2.70;;
80567;SDS011;69922;45.656;25.586;2024-03-02T04:47:20;4.70;;;2.50;;
80567;SDS011;69922;45.656;25.586;2024-03-02T04:48:27;4.60;;;2.90;;
80567;SDS011;69922;45.656;25.586;2024-03-02T04:49:34;5.50;;;2.70;;
80567;SDS011;69922;45.656;25.586;2024-03-02T04:50:41;4.80;;;2.80;;
80567;SDS011;69922;45.656;25.586;2024-03-02T04:51:48;6.50;;;3.10;;
80567;SDS011;69922;45.656;25.586;2024-03-02T04:52:57;5.50;;;2.60;;
80567;SDS011;69922;45.656;25.586;2024-03-02T04:54:04;4.10;;;2.60;;
80567;SDS011;69922;45.656;25.586;2024-03-02T04:55:11;5.00;;;2.70;;
80567;SDS011;69922;45.656;25.586;2024-03-02T04:56:21;7.30;;;2.90;;
80567;SDS011;69922;45.656;25.586;2024-03-02T04:57:31;7.10;;;2.90;;
80567;SDS011;69922;45.656;25.586;2024-03-02T04:58:38;5.90;;;3.10;;
80567;SDS011;69922;45.656;25.586;2024-03-02T04:59:46;7.40;;;3.30;;
80567;SDS011;69922;45.656;25.586;2024-03-02T05:00:52;5.20;;;2.90;;
80567;SDS011;69922;45.656;25.586;2024-03-02T05:01:59;7.50;;;3.50;;
80567;SDS011;69922;45.656;25.586;2024-03-02T05:03:06;5.60;;;3.30;;
80567;SDS011;69922;45.656;25.586;2024-03-02T05:04:13;4.60;;;2.60;;
80567;SDS011;69922;45.656;25.586;2024-03-02T05:05:20;6.40;;;2.80;;
80567;SDS011;69922;45.656;25.586;2024-03-02T05:06:26;9.50;;;3.20;;
80567;SDS011;69922;45.656;25.586;2024-03-02T05:07:35;6.10;;;2.80;;
80567;SDS011;69922;45.656;25.586;2024-03-02T05:08:41;5.30;;;2.40;;
80567;SDS011;69922;45.656;25.586;2024-03-02T05:09:49;6.10;;;2.60;;
80567;SDS011;69922;45.656;25.586;2024-03-02T05:10:56;5.40;;;2.90;;
80567;SDS011;69922;45.656;25.586;2024-03-02T05:12:23;5.10;;;2.70;;
80567;SDS011;69922;45.656;25.586;2024-03-02T05:13:45;4.80;;;2.70;;
80567;SDS011;69922;45.656;25.586;2024-03-02T05:14:52;7.30;;;2.80;;
80567;SDS011;69922;45.656;25.586;2024-03-02T05:15:59;5.20;;;3.00;;
80567;SDS011;69922;45.656;25.586;2024-03-02T05:17:06;5.70;;;3.10;;
80567;SDS011;69922;45.656;25.586;2024-03-02T05:18:13;7.20;;;2.50;;
80567;SDS011;69922;45.656;25.586;2024-03-02T05:19:20;6.30;;;2.40;;
80567;SDS011;69922;45.656;25.586;2024-03-02T05:20:27;3.20;;;2.00;;
80567;SDS011;69922;45.656;25.586;2024-03-02T05:21:35;5.80;;;2.10;;
80567;SDS011;69922;45.656;25.586;2024-03-02T05:22:43;4.70;;;2.20;;
80567;SDS011;69922;45.656;25.586;2024-03-02T05:23:49;4.70;;;2.30;;
80567;SDS011;69922;45.656;25.586;2024-03-02T05:24:56;6.60;;;3.10;;
80567;SDS011;69922;45.656;25.586;2024-03-02T05:26:05;4.50;;;2.80;;
80567;SDS011;69922;45.656;25.586;2024-03-02T05:27:12;4.90;;;2.40;;
80567;SDS011;69922;45.656;25.586;2024-03-02T05:28:19;5.30;;;2.10;;
80567;SDS011;69922;45.656;25.586;2024-03-02T05:29:27;4.30;;;2.30;;
80567;SDS011;69922;45.656;25.586;2024-03-02T05:30:33;4.00;;;2.50;;
80567;SDS011;69922;45.656;25.586;2024-03-02T05:31:40;8.60;;;3.80;;
80567;SDS011;69922;45.656;25.586;2024-03-02T05:32:47;7.90;;;3.80;;
80567;SDS011;69922;45.656;25.586;2024-03-02T05:33:54;7.40;;;3.30;;
80567;SDS011;69922;45.656;25.586;2024-03-02T05:35:02;6.70;;;3.10;;
80567;SDS011;69922;45.656;25.586;2024-03-02T05:36:09;10.40;;;3.40;;
80567;SDS011;69922;45.656;25.586;2024-03-02T05:37:17;4.80;;;3.10;;
80567;SDS011;69922;45.656;25.586;2024-03-02T05:38:24;6.00;;;3.00;;
80567;SDS011;69922;45.656;25.586;2024-03-02T05:39:30;6.40;;;3.30;;
80567;SDS011;69922;45.656;25.586;2024-03-02T05:40:37;6.40;;;3.00;;
80567;SDS011;69922;45.656;25.586;2024-03-02T05:41:44;3.70;;;2.00;;
80567;SDS011;69922;45.656;25.586;2024-03-02T05:42:51;5.20;;;2.40;;
80567;SDS011;69922;45.656;25.586;2024-03-02T05:43:57;4.90;;;2.50;;
80567;SDS011;69922;45.656;25.586;2024-03-02T05:45:05;5.90;;;2.60;;
80567;SDS011;69922;45.656;25.586;2024-03-02T05:46:13;4.60;;;2.40;;
80567;SDS011;69922;45.656;25.586;2024-03-02T05:47:19;4.20;;;2.20;;
80567;SDS011;69922;45.656;25.586;2024-03-02T05:48:26;4.70;;;2.50;;
80567;SDS011;69922;45.656;25.586;2024-03-02T05:49:33;5.00;;;2.70;;
80567;SDS011;69922;45.656;25.586;2024-03-02T05:50:41;3.80;;;1.90;;
80567;SDS011;69922;45.656;25.586;2024-03-02T05:51:48;5.10;;;2.30;;
80567;SDS011;69922;45.656;25.586;2024-03-02T05:52:55;4.50;;;2.60;;
80567;SDS011;69922;45.656;25.586;2024-03-02T05:54:03;3.00;;;2.00;;
80567;SDS011;69922;45.656;25.586;2024-03-02T05:55:10;5.80;;;2.60;;
80567;SDS011;69922;45.656;25.586;2024-03-02T05:56:17;5.10;;;2.60;;
80567;SDS011;69922;45.656;25.586;2024-03-02T05:57:24;5.90;;;2.90;;
80567;SDS011;69922;45.656;25.586;2024-03-02T05:59:03;6.00;;;2.20;;
80567;SDS011;69922;45.656;25.586;2024-03-02T06:00:17;5.80;;;2.40;;
80567;SDS011;69922;45.656;25.586;2024-03-02T06:01:26;5.50;;;2.40;;
80567;SDS011;69922;45.656;25.586;2024-03-02T06:02:34;2.90;;;1.80;;
80567;SDS011;69922;45.656;25.586;2024-03-02T06:03:43;4.00;;;2.00;;
80567;SDS011;69922;45.656;25.586;2024-03-02T06:04:50;7.00;;;2.40;;
80567;SDS011;69922;45.656;25.586;2024-03-02T06:05:59;6.00;;;2.50;;
80567;SDS011;69922;45.656;25.586;2024-03-02T06:07:06;7.20;;;2.70;;
80567;SDS011;69922;45.656;25.586;2024-03-02T06:08:13;7.60;;;3.10;;
80567;SDS011;69922;45.656;25.586;2024-03-02T06:09:20;7.90;;;3.00;;
80567;SDS011;69922;45.656;25.586;2024-03-02T06:10:30;3.90;;;2.50;;
80567;SDS011;69922;45.656;25.586;2024-03-02T06:11:36;5.70;;;2.50;;
80567;SDS011;69922;45.656;25.586;2024-03-02T06:12:44;4.10;;;2.40;;
80567;SDS011;69922;45.656;25.586;2024-03-02T06:13:52;6.90;;;3.00;;
80567;SDS011;69922;45.656;25.586;2024-03-02T06:14:59;6.20;;;2.70;;
80567;SDS011;69922;45.656;25.586;2024-03-02T06:16:06;6.70;;;3.00;;
80567;SDS011;69922;45.656;25.586;2024-03-02T06:17:13;4.40;;;2.80;;
80567;SDS011;69922;45.656;25.586;2024-03-02T06:18:21;5.40;;;2.50;;
80567;SDS011;69922;45.656;25.586;2024-03-02T06:19:29;5.10;;;2.50;;
80567;SDS011;69922;45.656;25.586;2024-03-02T06:20:36;5.50;;;3.20;;
80567;SDS011;69922;45.656;25.586;2024-03-02T06:21:43;7.50;;;2.80;;
80567;SDS011;69922;45.656;25.586;2024-03-02T06:22:51;5.90;;;3.00;;
80567;SDS011;69922;45.656;25.586;2024-03-02T06:23:57;3.80;;;2.40;;
80567;SDS011;69922;45.656;25.586;2024-03-02T06:25:05;6.80;;;3.40;;
80567;SDS011;69922;45.656;25.586;2024-03-02T06:26:13;4.50;;;2.60;;
80567;SDS011;69922;45.656;25.586;2024-03-02T06:27:21;5.30;;;2.70;;
80567;SDS011;69922;45.656;25.586;2024-03-02T06:28:28;5.60;;;2.90;;
80567;SDS011;69922;45.656;25.586;2024-03-02T06:29:35;5.30;;;2.50;;
80567;SDS011;69922;45.656;25.586;2024-03-02T06:30:41;6.20;;;2.80;;
80567;SDS011;69922;45.656;25.586;2024-03-02T06:31:50;5.70;;;2.60;;
80567;SDS011;69922;45.656;25.586;2024-03-02T06:32:58;5.70;;;2.70;;
80567;SDS011;69922;45.656;25.586;2024-03-02T06:34:05;6.40;;;3.20;;
80567;SDS011;69922;45.656;25.586;2024-03-02T06:35:13;7.90;;;2.50;;
80567;SDS011;69922;45.656;25.586;2024-03-02T06:36:20;6.30;;;2.60;;
80567;SDS011;69922;45.656;25.586;2024-03-02T06:37:28;6.20;;;2.70;;
80567;SDS011;69922;45.656;25.586;2024-03-02T06:38:35;6.80;;;3.40;;
80567;SDS011;69922;45.656;25.586;2024-03-02T06:39:46;5.20;;;2.70;;
80567;SDS011;69922;45.656;25.586;2024-03-02T06:40:53;6.30;;;2.60;;
80567;SDS011;69922;45.656;25.586;2024-03-02T06:42:00;4.40;;;2.20;;
80567;SDS011;69922;45.656;25.586;2024-03-02T06:43:09;5.20;;;2.50;;
80567;SDS011;69922;45.656;25.586;2024-03-02T06:44:16;9.10;;;3.10;;
80567;SDS011;69922;45.656;25.586;2024-03-02T06:45:23;5.30;;;2.80;;
80567;SDS011;69922;45.656;25.586;2024-03-02T06:46:30;4.70;;;3.00;;
80567;SDS011;69922;45.656;25.586;2024-03-02T06:47:37;6.30;;;3.10;;
80567;SDS011;69922;45.656;25.586;2024-03-02T06:48:44;4.90;;;2.80;;
80567;SDS011;69922;45.656;25.586;2024-03-02T06:49:51;4.90;;;3.00;;
80567;SDS011;69922;45.656;25.586;2024-03-02T06:50:58;5.00;;;3.00;;